METAR AND TAF INFORMATION
METAR FOR UAKK
ADDS - METARS form results

(0410 UTC 26 August 2019)
Data provider http://aviationweather.gov/metar/data/
 
METAR text: UAKK 260400Z 21006MPS CAVOK 26/06 Q1014 R05/0///70 NOSIG RMK QFE713/0951
Conditions at: UAKK (KARAGANDA , KZ) observed 0400 UTC 26 August 2019
Temperature: 26.0°C (79°F)
Dewpoint: 6.0°C (43°F) [RH = 28%]
Pressure (altimeter): 29.94 inches Hg (1014.0 mb)
Winds: from the SSW (210 degrees) at 14 MPH (12 knots; 6.2 m/s)
Visibility: 6 or more miles (10+ km)
Ceiling: ceiling and visibility are OK
Clouds: unknown
Weather: no significant weather observed at this time

METAR text: UAKK 260330Z 20005MPS CAVOK 25/06 Q1014 R05/0///70 NOSIG RMK QFE713/0951
Conditions at: UAKK (KARAGANDA , KZ) observed 0330 UTC 26 August 2019
Temperature: 25.0°C (77°F)
Dewpoint: 6.0°C (43°F) [RH = 30%]
Pressure (altimeter): 29.94 inches Hg (1014.0 mb)
Winds: from the SSW (200 degrees) at 12 MPH (10 knots; 5.1 m/s)
Visibility: 6 or more miles (10+ km)
Ceiling: ceiling and visibility are OK
Clouds: unknown
Weather: no significant weather observed at this time

Forecast for: UAKK (KARAGANDA , KZ)
Text: TAF UAKK 252300Z 2600/2624 VRB02MPS 9999 NSC TX30/2611Z TN07/2624Z
Forecast period: 0000 to 0400 UTC 26 August 2019
Forecast type: FROM: standard forecast or significant change
Winds: variable direction winds at 5 MPH (4 knots; 2.1 m/s)
Visibility: 6 or more miles 10+ km)
Ceiling: unknown
Clouds: missing
Weather: no significant weather forecast for this period
Text: BECMG 2604/2606 22005MPS
Forecast period: 0400 UTC 26 August 2019 to 0000 UTC 27 August 2019
Forecast type: BECOMING: Conditions expected to become as follows by 0600 UTC 26 August 2019
Winds: from the SW (220 degrees) at 12 MPH (10 knots; 5.1 m/s)
Visibility: 6 or more miles 10+ km)
Ceiling: unknown
Clouds: missing
Weather: no significant weather forecast for this period
Text: TEMPO 2616/2622 19005MPS
Forecast period: 1600 to 2200 UTC 26 August 2019
Forecast type: TEMPORARY: The following changes expected for less than half the time period
Winds: from the S (190 degrees) at 12 MPH (10 knots; 5.1 m/s)
Visibility: missing
Ceiling: unknown
Clouds: missing
Weather: no significant weather forecast for this period
Text: TEMPO 2622/2624 27005MPS
Forecast period: 2200 UTC 26 August 2019 to 0000 UTC 27 August 2019
Forecast type: TEMPORARY: The following changes expected for less than half the time period
Winds: from the W (270 degrees) at 12 MPH (10 knots; 5.1 m/s)
Visibility: missing
Ceiling: unknown
Clouds: missing
Weather: no significant weather forecast for this period

 AIRPORT MAP

 RUNWAY INFORMATION

 AIRPORT FREQUENCIES
Type APP Name APP Frequency 122 MHZ
Type TWR Name TWR Frequency 118.3 MHZ

 AIRPORT NEAR NAVIGATION AIDS
Type NDB Name Karaganda Frequency 299 KHZ
Type VOR-DME Name Karaganda Frequency 113400 KHZ
Type NDB Name Karaganda Frequency 299 KHZ



2018 Air Astana Virtual Airline